sensor_id;sensor_type;location;lat;lon;timestamp;pressure;altitude;pressure_sealevel;temperature;humidity
18784;BME280;9520;50.954;6.968;2023-04-24T00:00:22;99605.16;;;19.70;40.96
18784;BME280;9520;50.954;6.968;2023-04-24T00:00:44;99600.13;;;19.65;40.95
18784;BME280;9520;50.954;6.968;2023-04-24T00:01:06;99607.41;;;19.51;41.44
18784;BME280;9520;50.954;6.968;2023-04-24T00:01:30;99614.16;;;19.56;41.24
18784;BME280;9520;50.954;6.968;2023-04-24T00:01:53;99600.78;;;19.56;41.11
18784;BME280;9520;50.954;6.968;2023-04-24T00:02:16;99594.56;;;19.56;41.13
18784;BME280;9520;50.954;6.968;2023-04-24T00:02:38;99608.25;;;19.64;40.89
18784;BME280;9520;50.954;6.968;2023-04-24T00:03:02;99603.56;;;19.67;40.86
18784;BME280;9520;50.954;6.968;2023-04-24T00:03:25;99604.28;;;19.69;40.74
18784;BME280;9520;50.954;6.968;2023-04-24T00:03:47;99607.75;;;19.71;41.18
18784;BME280;9520;50.954;6.968;2023-04-24T00:04:09;99605.69;;;19.62;41.22
18784;BME280;9520;50.954;6.968;2023-04-24T00:04:33;99602.72;;;19.67;41.15
18784;BME280;9520;50.954;6.968;2023-04-24T00:04:56;99595.63;;;19.66;41.07
18784;BME280;9520;50.954;6.968;2023-04-24T00:05:18;99605.06;;;19.71;41.40
18784;BME280;9520;50.954;6.968;2023-04-24T00:05:40;99609.88;;;19.66;41.44
18784;BME280;9520;50.954;6.968;2023-04-24T00:06:03;99604.94;;;19.60;40.88
18784;BME280;9520;50.954;6.968;2023-04-24T00:06:24;99606.22;;;19.55;40.98
18784;BME280;9520;50.954;6.968;2023-04-24T00:06:54;99611.56;;;19.55;41.13
18784;BME280;9520;50.954;6.968;2023-04-24T00:07:18;99600.78;;;19.56;40.90
18784;BME280;9520;50.954;6.968;2023-04-24T00:07:41;99604.31;;;19.57;41.19
18784;BME280;9520;50.954;6.968;2023-04-24T00:08:03;99607.94;;;19.56;41.18
18784;BME280;9520;50.954;6.968;2023-04-24T00:08:28;99604.19;;;19.46;41.69
18784;BME280;9520;50.954;6.968;2023-04-24T00:08:51;99600.19;;;19.38;41.60
18784;BME280;9520;50.954;6.968;2023-04-24T00:09:13;99603.72;;;19.39;41.57
18784;BME280;9520;50.954;6.968;2023-04-24T00:09:35;99604.34;;;19.30;41.61
18784;BME280;9520;50.954;6.968;2023-04-24T00:09:58;99596.00;;;19.22;41.60
18784;BME280;9520;50.954;6.968;2023-04-24T00:10:20;99606.47;;;19.25;41.69
18784;BME280;9520;50.954;6.968;2023-04-24T00:10:52;99581.75;;;19.09;41.64
18784;BME280;9520;50.954;6.968;2023-04-24T00:11:14;99605.91;;;19.20;41.75
18784;BME280;9520;50.954;6.968;2023-04-24T00:11:37;99598.66;;;19.22;41.74
18784;BME280;9520;50.954;6.968;2023-04-24T00:11:58;99600.38;;;19.23;41.81
18784;BME280;9520;50.954;6.968;2023-04-24T00:12:21;99603.69;;;19.26;41.76
18784;BME280;9520;50.954;6.968;2023-04-24T00:12:43;99600.56;;;19.20;41.65
18784;BME280;9520;50.954;6.968;2023-04-24T00:13:05;99607.81;;;19.05;41.74
18784;BME280;9520;50.954;6.968;2023-04-24T00:13:27;99582.25;;;18.88;41.97
18784;BME280;9520;50.954;6.968;2023-04-24T00:13:50;99598.53;;;19.11;42.08
18784;BME280;9520;50.954;6.968;2023-04-24T00:14:12;99592.00;;;19.15;41.94
18784;BME280;9520;50.954;6.968;2023-04-24T00:14:35;99598.75;;;19.20;41.71
18784;BME280;9520;50.954;6.968;2023-04-24T00:14:56;99603.78;;;19.25;41.62
18784;BME280;9520;50.954;6.968;2023-04-24T00:15:18;99592.69;;;19.18;41.72
18784;BME280;9520;50.954;6.968;2023-04-24T00:15:40;99602.75;;;19.27;42.07
18784;BME280;9520;50.954;6.968;2023-04-24T00:16:03;99603.38;;;19.31;42.03
18784;BME280;9520;50.954;6.968;2023-04-24T00:16:24;99596.53;;;19.27;41.65
18784;BME280;9520;50.954;6.968;2023-04-24T00:16:46;99598.03;;;19.31;41.64
18784;BME280;9520;50.954;6.968;2023-04-24T00:17:09;99594.09;;;19.24;41.53
18784;BME280;9520;50.954;6.968;2023-04-24T00:17:31;99597.81;;;19.21;41.81
18784;BME280;9520;50.954;6.968;2023-04-24T00:17:53;99605.50;;;19.26;41.76
18784;BME280;9520;50.954;6.968;2023-04-24T00:18:15;99599.84;;;19.30;41.57
18784;BME280;9520;50.954;6.968;2023-04-24T00:18:36;99595.59;;;19.28;41.42
18784;BME280;9520;50.954;6.968;2023-04-24T00:18:59;99591.81;;;19.30;41.91
18784;BME280;9520;50.954;6.968;2023-04-24T00:19:22;99598.69;;;19.34;41.54
18784;BME280;9520;50.954;6.968;2023-04-24T00:19:44;99600.28;;;19.37;41.40
18784;BME280;9520;50.954;6.968;2023-04-24T00:20:06;99602.75;;;19.40;41.46
18784;BME280;9520;50.954;6.968;2023-04-24T00:20:31;99603.59;;;19.40;41.53
18784;BME280;9520;50.954;6.968;2023-04-24T00:20:53;99598.34;;;19.39;42.00
18784;BME280;9520;50.954;6.968;2023-04-24T00:21:15;99602.56;;;19.43;41.49
18784;BME280;9520;50.954;6.968;2023-04-24T00:21:40;99605.41;;;19.40;41.77
18784;BME280;9520;50.954;6.968;2023-04-24T00:22:03;99599.59;;;19.48;42.01
18784;BME280;9520;50.954;6.968;2023-04-24T00:22:25;99604.00;;;19.49;42.04
18784;BME280;9520;50.954;6.968;2023-04-24T00:22:47;99582.31;;;19.26;41.71
18784;BME280;9520;50.954;6.968;2023-04-24T00:23:09;99598.69;;;19.34;41.91
18784;BME280;9520;50.954;6.968;2023-04-24T00:23:31;99595.59;;;19.40;41.81
18784;BME280;9520;50.954;6.968;2023-04-24T00:23:54;99595.09;;;19.48;41.60
18784;BME280;9520;50.954;6.968;2023-04-24T00:24:16;99580.63;;;19.38;41.32
18784;BME280;9520;50.954;6.968;2023-04-24T00:24:38;99592.13;;;19.53;41.35
18784;BME280;9520;50.954;6.968;2023-04-24T00:25:01;99585.13;;;19.50;41.33
18784;BME280;9520;50.954;6.968;2023-04-24T00:25:22;99592.75;;;19.56;41.34
18784;BME280;9520;50.954;6.968;2023-04-24T00:25:44;99589.31;;;19.54;41.42
18784;BME280;9520;50.954;6.968;2023-04-24T00:26:06;99581.94;;;19.58;41.21
18784;BME280;9520;50.954;6.968;2023-04-24T00:26:29;99592.13;;;19.53;41.07
18784;BME280;9520;50.954;6.968;2023-04-24T00:26:51;99582.47;;;19.50;41.28
18784;BME280;9520;50.954;6.968;2023-04-24T00:27:13;99592.22;;;19.51;41.34
18784;BME280;9520;50.954;6.968;2023-04-24T00:27:34;99580.56;;;19.52;41.16
18784;BME280;9520;50.954;6.968;2023-04-24T00:27:58;99593.81;;;19.54;41.54
18784;BME280;9520;50.954;6.968;2023-04-24T00:28:20;99583.88;;;19.56;41.29
18784;BME280;9520;50.954;6.968;2023-04-24T00:28:41;99593.69;;;19.55;41.52
18784;BME280;9520;50.954;6.968;2023-04-24T00:29:04;99587.41;;;19.56;41.45
18784;BME280;9520;50.954;6.968;2023-04-24T00:29:26;99585.13;;;19.50;41.50
18784;BME280;9520;50.954;6.968;2023-04-24T00:29:49;99591.25;;;19.52;41.56
18784;BME280;9520;50.954;6.968;2023-04-24T00:30:14;99587.72;;;19.52;41.31
18784;BME280;9520;50.954;6.968;2023-04-24T00:30:35;99594.66;;;19.54;41.32
18784;BME280;9520;50.954;6.968;2023-04-24T00:30:59;99594.03;;;19.51;41.31
18784;BME280;9520;50.954;6.968;2023-04-24T00:31:20;99585.56;;;19.44;41.31
18784;BME280;9520;50.954;6.968;2023-04-24T00:31:42;99590.91;;;19.44;41.42
18784;BME280;9520;50.954;6.968;2023-04-24T00:32:04;99588.97;;;19.33;41.57
18784;BME280;9520;50.954;6.968;2023-04-24T00:32:27;99593.66;;;19.30;41.83
18784;BME280;9520;50.954;6.968;2023-04-24T00:32:49;99589.28;;;19.29;41.76
18784;BME280;9520;50.954;6.968;2023-04-24T00:33:11;99585.44;;;19.33;41.62
18784;BME280;9520;50.954;6.968;2023-04-24T00:33:33;99585.75;;;19.28;41.64
18784;BME280;9520;50.954;6.968;2023-04-24T00:33:56;99588.28;;;19.30;41.87
18784;BME280;9520;50.954;6.968;2023-04-24T00:34:18;99589.03;;;19.19;42.04
18784;BME280;9520;50.954;6.968;2023-04-24T00:34:40;99588.19;;;19.19;42.25
18784;BME280;9520;50.954;6.968;2023-04-24T00:35:02;99590.56;;;19.23;42.47
18784;BME280;9520;50.954;6.968;2023-04-24T00:35:27;99581.66;;;19.23;42.67
18784;BME280;9520;50.954;6.968;2023-04-24T00:35:49;99589.28;;;19.29;42.40
18784;BME280;9520;50.954;6.968;2023-04-24T00:36:11;99589.91;;;19.32;42.22
18784;BME280;9520;50.954;6.968;2023-04-24T00:36:34;99559.53;;;19.21;42.04
18784;BME280;9520;50.954;6.968;2023-04-24T00:36:56;99570.44;;;19.18;41.79
18784;BME280;9520;50.954;6.968;2023-04-24T00:37:18;99587.03;;;19.35;41.66
18784;BME280;9520;50.954;6.968;2023-04-24T00:37:40;99592.28;;;19.37;41.48
18784;BME280;9520;50.954;6.968;2023-04-24T00:38:02;99597.19;;;19.30;42.00
18784;BME280;9520;50.954;6.968;2023-04-24T00:38:24;99594.41;;;19.32;41.91
18784;BME280;9520;50.954;6.968;2023-04-24T00:38:46;99604.78;;;19.36;41.64
18784;BME280;9520;50.954;6.968;2023-04-24T00:39:10;99590.34;;;19.39;42.21
18784;BME280;9520;50.954;6.968;2023-04-24T00:39:32;99589.09;;;19.45;41.99
18784;BME280;9520;50.954;6.968;2023-04-24T00:39:54;99593.38;;;19.47;42.12
18784;BME280;9520;50.954;6.968;2023-04-24T00:40:16;99591.25;;;19.52;42.07
18784;BME280;9520;50.954;6.968;2023-04-24T00:40:39;99595.53;;;19.55;41.90
18784;BME280;9520;50.954;6.968;2023-04-24T00:41:01;99596.38;;;19.55;41.92
18784;BME280;9520;50.954;6.968;2023-04-24T00:41:24;99596.69;;;19.51;41.71
18784;BME280;9520;50.954;6.968;2023-04-24T00:41:46;99592.13;;;19.53;41.66
18784;BME280;9520;50.954;6.968;2023-04-24T00:42:10;99592.84;;;19.55;41.28
18784;BME280;9520;50.954;6.968;2023-04-24T00:42:32;99591.44;;;19.49;41.26
18784;BME280;9520;50.954;6.968;2023-04-24T00:42:54;99580.97;;;19.46;41.13
18784;BME280;9520;50.954;6.968;2023-04-24T00:43:16;99584.50;;;19.47;41.06
18784;BME280;9520;50.954;6.968;2023-04-24T00:43:39;99588.56;;;19.52;41.19
18784;BME280;9520;50.954;6.968;2023-04-24T00:44:01;99591.88;;;19.56;41.12
18784;BME280;9520;50.954;6.968;2023-04-24T00:44:23;99592.97;;;19.53;41.00
18784;BME280;9520;50.954;6.968;2023-04-24T00:44:45;99567.44;;;19.35;41.16
18784;BME280;9520;50.954;6.968;2023-04-24T00:45:08;99588.03;;;19.47;41.18
18784;BME280;9520;50.954;6.968;2023-04-24T00:45:31;99589.94;;;19.45;41.39
18784;BME280;9520;50.954;6.968;2023-04-24T00:45:53;99591.44;;;19.49;41.39
18784;BME280;9520;50.954;6.968;2023-04-24T00:46:16;99590.81;;;19.46;41.60
18784;BME280;9520;50.954;6.968;2023-04-24T00:46:39;99590.09;;;19.29;41.65
18784;BME280;9520;50.954;6.968;2023-04-24T00:47:03;99586.78;;;19.26;42.03
18784;BME280;9520;50.954;6.968;2023-04-24T00:47:25;99580.09;;;19.33;42.21
18784;BME280;9520;50.954;6.968;2023-04-24T00:47:48;99586.06;;;19.36;42.31
18784;BME280;9520;50.954;6.968;2023-04-24T00:48:11;99585.13;;;19.37;42.13
18784;BME280;9520;50.954;6.968;2023-04-24T00:48:34;99578.69;;;19.40;41.69
18784;BME280;9520;50.954;6.968;2023-04-24T00:48:56;99586.50;;;19.43;41.81
18784;BME280;9520;50.954;6.968;2023-04-24T00:49:18;99586.09;;;19.49;42.25
18784;BME280;9520;50.954;6.968;2023-04-24T00:49:39;99591.97;;;19.54;42.14
18784;BME280;9520;50.954;6.968;2023-04-24T00:50:03;99584.59;;;19.45;41.41
18784;BME280;9520;50.954;6.968;2023-04-24T00:50:27;99591.78;;;19.45;41.17
18784;BME280;9520;50.954;6.968;2023-04-24T00:50:50;99584.03;;;19.40;41.35
18784;BME280;9520;50.954;6.968;2023-04-24T00:51:12;99584.78;;;19.42;41.18
18784;BME280;9520;50.954;6.968;2023-04-24T00:51:34;99560.91;;;19.26;41.23
18784;BME280;9520;50.954;6.968;2023-04-24T00:51:58;99585.84;;;19.27;41.70
18784;BME280;9520;50.954;6.968;2023-04-24T00:52:20;99582.53;;;19.23;41.76
18784;BME280;9520;50.954;6.968;2023-04-24T00:52:47;99580.91;;;19.21;41.59
18784;BME280;9520;50.954;6.968;2023-04-24T00:53:09;99583.94;;;19.29;41.25
18784;BME280;9520;50.954;6.968;2023-04-24T00:53:31;99575.78;;;19.30;41.26
18784;BME280;9520;50.954;6.968;2023-04-24T00:53:54;99578.88;;;19.12;41.64
18784;BME280;9520;50.954;6.968;2023-04-24T00:54:17;99581.22;;;19.16;41.50
18784;BME280;9520;50.954;6.968;2023-04-24T00:54:40;99586.97;;;19.10;41.49
18784;BME280;9520;50.954;6.968;2023-04-24T00:55:02;99581.31;;;19.15;41.72
18784;BME280;9520;50.954;6.968;2023-04-24T00:55:24;99583.50;;;19.22;41.58
18784;BME280;9520;50.954;6.968;2023-04-24T00:55:47;99583.25;;;19.25;41.44
18784;BME280;9520;50.954;6.968;2023-04-24T00:56:09;99583.06;;;19.28;41.26
18784;BME280;9520;50.954;6.968;2023-04-24T00:56:32;99578.69;;;19.27;40.95
18784;BME280;9520;50.954;6.968;2023-04-24T00:56:54;99584.34;;;19.35;40.78
18784;BME280;9520;50.954;6.968;2023-04-24T00:57:18;99576.88;;;19.40;40.74
18784;BME280;9520;50.954;6.968;2023-04-24T00:57:41;99579.31;;;19.31;40.81
18784;BME280;9520;50.954;6.968;2023-04-24T00:58:04;99580.09;;;19.33;40.88
18784;BME280;9520;50.954;6.968;2023-04-24T00:58:26;99590.22;;;19.28;40.84
18784;BME280;9520;50.954;6.968;2023-04-24T00:58:48;99540.03;;;19.06;41.18
18784;BME280;9520;50.954;6.968;2023-04-24T00:59:11;99586.59;;;19.29;40.94
18784;BME280;9520;50.954;6.968;2023-04-24T00:59:33;99585.44;;;19.33;40.85
18784;BME280;9520;50.954;6.968;2023-04-24T00:59:55;99582.63;;;19.34;40.85
18784;BME280;9520;50.954;6.968;2023-04-24T01:00:16;99588.97;;;19.33;40.79
18784;BME280;9520;50.954;6.968;2023-04-24T01:00:40;99585.63;;;19.30;40.93
18784;BME280;9520;50.954;6.968;2023-04-24T01:01:02;99584.13;;;19.26;40.77
18784;BME280;9520;50.954;6.968;2023-04-24T01:01:28;99584.22;;;19.24;40.93
18784;BME280;9520;50.954;6.968;2023-04-24T01:01:51;99554.88;;;18.97;40.92
18784;BME280;9520;50.954;6.968;2023-04-24T01:02:14;99588.38;;;19.16;41.26
18784;BME280;9520;50.954;6.968;2023-04-24T01:02:38;99568.81;;;19.15;41.36
18784;BME280;9520;50.954;6.968;2023-04-24T01:03:04;99514.97;;;18.82;41.30
18784;BME280;9520;50.954;6.968;2023-04-24T01:03:29;99556.06;;;18.93;41.12
18784;BME280;9520;50.954;6.968;2023-04-24T01:03:53;99583.03;;;19.16;40.79
18784;BME280;9520;50.954;6.968;2023-04-24T01:04:16;99590.72;;;19.08;40.81
18784;BME280;9520;50.954;6.968;2023-04-24T01:04:39;99589.00;;;19.07;41.56
18784;BME280;9520;50.954;6.968;2023-04-24T01:05:01;99586.13;;;19.10;41.69
18784;BME280;9520;50.954;6.968;2023-04-24T01:05:25;99587.75;;;19.12;41.74
18784;BME280;9520;50.954;6.968;2023-04-24T01:05:47;99524.91;;;18.80;41.21
18784;BME280;9520;50.954;6.968;2023-04-24T01:06:10;99587.34;;;19.18;41.01
18784;BME280;9520;50.954;6.968;2023-04-24T01:06:32;99580.03;;;19.20;40.99
18784;BME280;9520;50.954;6.968;2023-04-24T01:06:56;99579.31;;;19.18;40.99
18784;BME280;9520;50.954;6.968;2023-04-24T01:07:20;99580.91;;;19.21;40.82
18784;BME280;9520;50.954;6.968;2023-04-24T01:07:44;99582.53;;;19.23;41.03
18784;BME280;9520;50.954;6.968;2023-04-24T01:08:07;99586.78;;;19.26;41.11
18784;BME280;9520;50.954;6.968;2023-04-24T01:08:30;99587.56;;;19.28;41.18
18784;BME280;9520;50.954;6.968;2023-04-24T01:08:52;99518.84;;;18.90;40.93
18784;BME280;9520;50.954;6.968;2023-04-24T01:09:16;99585.53;;;19.31;41.04
18784;BME280;9520;50.954;6.968;2023-04-24T01:09:40;99566.81;;;19.19;40.96
18784;BME280;9520;50.954;6.968;2023-04-24T01:10:03;99582.94;;;19.30;40.65
18784;BME280;9520;50.954;6.968;2023-04-24T01:10:26;99579.41;;;19.17;40.56
18784;BME280;9520;50.954;6.968;2023-04-24T01:10:50;99582.81;;;19.06;40.65
18784;BME280;9520;50.954;6.968;2023-04-24T01:11:13;99584.69;;;18.91;41.08
18784;BME280;9520;50.954;6.968;2023-04-24T01:11:36;99582.31;;;18.87;41.08
18784;BME280;9520;50.954;6.968;2023-04-24T01:11:59;99558.72;;;18.54;40.78
18784;BME280;9520;50.954;6.968;2023-04-24T01:12:22;99583.88;;;18.64;40.43
18784;BME280;9520;50.954;6.968;2023-04-24T01:12:43;99549.75;;;18.41;40.76
18784;BME280;9520;50.954;6.968;2023-04-24T01:13:07;99591.09;;;18.62;40.77
18784;BME280;9520;50.954;6.968;2023-04-24T01:13:31;99579.66;;;18.60;40.92
18784;BME280;9520;50.954;6.968;2023-04-24T01:13:53;99562.09;;;18.29;40.98
18784;BME280;9520;50.954;6.968;2023-04-24T01:14:15;99576.44;;;18.41;41.29
18784;BME280;9520;50.954;6.968;2023-04-24T01:14:37;99586.50;;;18.23;41.67
18784;BME280;9520;50.954;6.968;2023-04-24T01:15:00;99580.88;;;18.28;41.90
18784;BME280;9520;50.954;6.968;2023-04-24T01:15:22;99580.28;;;18.37;41.69
18784;BME280;9520;50.954;6.968;2023-04-24T01:15:44;99573.88;;;18.39;41.51
18784;BME280;9520;50.954;6.968;2023-04-24T01:16:06;99588.44;;;18.48;41.77
18784;BME280;9520;50.954;6.968;2023-04-24T01:16:28;99575.19;;;18.46;41.69
18784;BME280;9520;50.954;6.968;2023-04-24T01:16:51;99588.44;;;18.62;41.56
18784;BME280;9520;50.954;6.968;2023-04-24T01:17:15;99585.56;;;18.65;41.62
18784;BME280;9520;50.954;6.968;2023-04-24T01:17:37;99583.56;;;18.69;41.06
18784;BME280;9520;50.954;6.968;2023-04-24T01:18:00;99584.19;;;18.72;40.46
18784;BME280;9520;50.954;6.968;2023-04-24T01:18:25;99581.13;;;18.78;40.59
18784;BME280;9520;50.954;6.968;2023-04-24T01:18:49;99583.41;;;18.84;40.54
18784;BME280;9520;50.954;6.968;2023-04-24T01:19:13;99589.47;;;18.86;40.57
18784;BME280;9520;50.954;6.968;2023-04-24T01:19:37;99577.75;;;18.89;40.42
18784;BME280;9520;50.954;6.968;2023-04-24T01:19:59;99584.59;;;18.93;40.61
18784;BME280;9520;50.954;6.968;2023-04-24T01:20:22;99583.81;;;18.91;40.39
18784;BME280;9520;50.954;6.968;2023-04-24T01:20:46;99588.06;;;18.81;39.94
18784;BME280;9520;50.954;6.968;2023-04-24T01:21:13;99590.75;;;18.81;39.92
18784;BME280;9520;50.954;6.968;2023-04-24T01:21:37;99587.97;;;18.82;40.31
18784;BME280;9520;50.954;6.968;2023-04-24T01:21:59;99537.72;;;18.48;39.97
18784;BME280;9520;50.954;6.968;2023-04-24T01:22:24;99591.44;;;18.70;40.36
18784;BME280;9520;50.954;6.968;2023-04-24T01:22:47;99575.41;;;18.70;40.42
18784;BME280;9520;50.954;6.968;2023-04-24T01:23:10;99572.41;;;18.62;40.69
18784;BME280;9520;50.954;6.968;2023-04-24T01:23:32;99538.03;;;18.43;40.77
18784;BME280;9520;50.954;6.968;2023-04-24T01:23:54;99588.03;;;18.68;40.09
18784;BME280;9520;50.954;6.968;2023-04-24T01:24:17;99567.94;;;18.63;40.07
18784;BME280;9520;50.954;6.968;2023-04-24T01:24:41;99585.16;;;18.71;40.39
18784;BME280;9520;50.954;6.968;2023-04-24T01:25:06;99573.34;;;18.61;40.00
18784;BME280;9520;50.954;6.968;2023-04-24T01:25:28;99584.41;;;18.69;40.10
18784;BME280;9520;50.954;6.968;2023-04-24T01:25:51;99582.88;;;18.65;40.09
18784;BME280;9520;50.954;6.968;2023-04-24T01:26:18;99586.63;;;18.63;39.93
18784;BME280;9520;50.954;6.968;2023-04-24T01:26:41;99533.69;;;18.28;40.05
18784;BME280;9520;50.954;6.968;2023-04-24T01:27:03;99579.28;;;18.52;40.21
18784;BME280;9520;50.954;6.968;2023-04-24T01:27:26;99588.44;;;18.48;40.45
18784;BME280;9520;50.954;6.968;2023-04-24T01:27:47;99587.50;;;18.49;40.51
18784;BME280;9520;50.954;6.968;2023-04-24T01:28:10;99589.31;;;18.48;40.42
18784;BME280;9520;50.954;6.968;2023-04-24T01:28:32;99580.75;;;18.43;40.41
18784;BME280;9520;50.954;6.968;2023-04-24T01:28:55;99579.09;;;18.41;40.25
18784;BME280;9520;50.954;6.968;2023-04-24T01:29:17;99581.69;;;18.42;40.14
18784;BME280;9520;50.954;6.968;2023-04-24T01:29:39;99589.50;;;18.45;40.07
18784;BME280;9520;50.954;6.968;2023-04-24T01:30:05;99589.22;;;18.36;40.54
18784;BME280;9520;50.954;6.968;2023-04-24T01:30:30;99593.81;;;18.34;40.66
18784;BME280;9520;50.954;6.968;2023-04-24T01:30:52;99586.84;;;18.31;40.60
18784;BME280;9520;50.954;6.968;2023-04-24T01:31:17;99594.25;;;18.40;40.59
18784;BME280;9520;50.954;6.968;2023-04-24T01:31:39;99588.53;;;18.46;40.47
18784;BME280;9520;50.954;6.968;2023-04-24T01:32:02;99596.25;;;18.51;40.34
18784;BME280;9520;50.954;6.968;2023-04-24T01:32:24;99595.13;;;18.55;40.70
18784;BME280;9520;50.954;6.968;2023-04-24T01:32:46;99607.22;;;18.61;40.53
18784;BME280;9520;50.954;6.968;2023-04-24T01:33:08;99597.78;;;18.55;40.49
18784;BME280;9520;50.954;6.968;2023-04-24T01:33:31;99599.22;;;18.46;40.39
18784;BME280;9520;50.954;6.968;2023-04-24T01:33:54;99595.56;;;18.35;40.36
18784;BME280;9520;50.954;6.968;2023-04-24T01:34:18;99603.91;;;18.43;40.40
18784;BME280;9520;50.954;6.968;2023-04-24T01:34:40;99600.94;;;18.47;40.54
18784;BME280;9520;50.954;6.968;2023-04-24T01:35:05;99603.53;;;18.49;40.33
18784;BME280;9520;50.954;6.968;2023-04-24T01:35:28;99596.19;;;18.38;40.13
18784;BME280;9520;50.954;6.968;2023-04-24T01:35:52;99599.03;;;18.35;40.35
18784;BME280;9520;50.954;6.968;2023-04-24T01:36:16;99597.84;;;18.27;40.25
18784;BME280;9520;50.954;6.968;2023-04-24T01:36:38;99612.69;;;18.45;39.97
18784;BME280;9520;50.954;6.968;2023-04-24T01:37:02;99562.97;;;18.16;40.04
18784;BME280;9520;50.954;6.968;2023-04-24T01:37:25;99603.34;;;18.38;39.90
18784;BME280;9520;50.954;6.968;2023-04-24T01:37:48;99608.22;;;18.31;39.70
18784;BME280;9520;50.954;6.968;2023-04-24T01:38:10;99607.81;;;18.37;39.84
18784;BME280;9520;50.954;6.968;2023-04-24T01:38:32;99606.66;;;18.41;39.42
18784;BME280;9520;50.954;6.968;2023-04-24T01:38:55;99613.06;;;18.39;39.31
18784;BME280;9520;50.954;6.968;2023-04-24T01:39:20;99602.97;;;18.44;39.44
18784;BME280;9520;50.954;6.968;2023-04-24T01:39:44;99588.50;;;18.34;39.44
18784;BME280;9520;50.954;6.968;2023-04-24T01:40:07;99601.72;;;18.35;39.44
18784;BME280;9520;50.954;6.968;2023-04-24T01:40:30;99613.53;;;18.45;39.10
18784;BME280;9520;50.954;6.968;2023-04-24T01:40:52;99615.06;;;18.49;39.09
18784;BME280;9520;50.954;6.968;2023-04-24T01:41:15;99602.19;;;18.42;38.77
18784;BME280;9520;50.954;6.968;2023-04-24T01:41:39;99615.94;;;18.50;38.63
18784;BME280;9520;50.954;6.968;2023-04-24T01:42:01;99612.97;;;18.54;38.82
18784;BME280;9520;50.954;6.968;2023-04-24T01:42:24;99610.88;;;18.60;38.57
18784;BME280;9520;50.954;6.968;2023-04-24T01:42:45;99547.41;;;18.22;38.53
18784;BME280;9520;50.954;6.968;2023-04-24T01:43:09;99613.03;;;18.67;38.60
18784;BME280;9520;50.954;6.968;2023-04-24T01:43:31;99614.75;;;18.68;38.77
18784;BME280;9520;50.954;6.968;2023-04-24T01:43:54;99623.50;;;18.70;38.70
18784;BME280;9520;50.954;6.968;2023-04-24T01:44:17;99617.50;;;18.67;38.38
18784;BME280;9520;50.954;6.968;2023-04-24T01:44:39;99609.59;;;18.65;38.47
18784;BME280;9520;50.954;6.968;2023-04-24T01:45:04;99618.75;;;18.61;38.38
18784;BME280;9520;50.954;6.968;2023-04-24T01:45:27;99620.53;;;18.34;38.13
18784;BME280;9520;50.954;6.968;2023-04-24T01:45:50;99601.38;;;18.13;38.54
18784;BME280;9520;50.954;6.968;2023-04-24T01:46:12;99625.28;;;18.29;38.47
18784;BME280;9520;50.954;6.968;2023-04-24T01:46:35;99623.38;;;18.31;38.43
18784;BME280;9520;50.954;6.968;2023-04-24T01:46:58;99619.00;;;18.16;38.38
18784;BME280;9520;50.954;6.968;2023-04-24T01:47:20;99621.59;;;18.17;38.44
18784;BME280;9520;50.954;6.968;2023-04-24T01:47:42;99605.38;;;18.06;38.18
18784;BME280;9520;50.954;6.968;2023-04-24T01:48:06;99610.16;;;18.15;38.31
18784;BME280;9520;50.954;6.968;2023-04-24T01:48:28;99614.16;;;18.22;38.30
18784;BME280;9520;50.954;6.968;2023-04-24T01:48:51;99621.00;;;18.26;38.51
18784;BME280;9520;50.954;6.968;2023-04-24T01:49:13;99615.97;;;17.93;38.93
18784;BME280;9520;50.954;6.968;2023-04-24T01:49:37;99609.69;;;17.94;38.98
18784;BME280;9520;50.954;6.968;2023-04-24T01:50:00;99612.53;;;17.91;39.05
18784;BME280;9520;50.954;6.968;2023-04-24T01:50:23;99616.94;;;17.92;38.91
18784;BME280;9520;50.954;6.968;2023-04-24T01:50:44;99617.03;;;17.91;39.02
18784;BME280;9520;50.954;6.968;2023-04-24T01:51:06;99619.44;;;17.95;39.07
18784;BME280;9520;50.954;6.968;2023-04-24T01:51:31;99620.16;;;17.97;39.14
18784;BME280;9520;50.954;6.968;2023-04-24T01:51:53;99594.34;;;17.84;39.07
18784;BME280;9520;50.954;6.968;2023-04-24T01:52:14;99589.31;;;17.79;39.09
18784;BME280;9520;50.954;6.968;2023-04-24T01:52:38;99617.69;;;17.94;39.39
18784;BME280;9520;50.954;6.968;2023-04-24T01:53:04;99613.53;;;17.90;39.17
18784;BME280;9520;50.954;6.968;2023-04-24T01:53:26;99613.81;;;17.86;38.87
18784;BME280;9520;50.954;6.968;2023-04-24T01:53:47;99617.41;;;17.85;39.10
18784;BME280;9520;50.954;6.968;2023-04-24T01:54:09;99596.81;;;17.73;39.08
18784;BME280;9520;50.954;6.968;2023-04-24T01:54:31;99620.66;;;17.90;39.36
18784;BME280;9520;50.954;6.968;2023-04-24T01:54:55;99611.31;;;17.97;39.53
18784;BME280;9520;50.954;6.968;2023-04-24T01:55:18;99614.53;;;18.02;39.97
18784;BME280;9520;50.954;6.968;2023-04-24T01:55:40;99609.78;;;18.07;39.49
18784;BME280;9520;50.954;6.968;2023-04-24T01:56:02;99588.91;;;17.99;39.56
18784;BME280;9520;50.954;6.968;2023-04-24T01:56:25;99597.00;;;17.98;39.23
18784;BME280;9520;50.954;6.968;2023-04-24T01:56:50;99600.16;;;18.04;39.29
18784;BME280;9520;50.954;6.968;2023-04-24T01:57:11;99592.03;;;18.06;39.70
18784;BME280;9520;50.954;6.968;2023-04-24T01:57:36;99616.06;;;18.20;39.29
18784;BME280;9520;50.954;6.968;2023-04-24T01:57:59;99606.53;;;18.16;39.00
18784;BME280;9520;50.954;6.968;2023-04-24T01:58:22;99595.78;;;18.03;38.78
18784;BME280;9520;50.954;6.968;2023-04-24T01:58:44;99612.63;;;18.18;38.66
18784;BME280;9520;50.954;6.968;2023-04-24T01:59:07;99606.06;;;18.09;39.17
18784;BME280;9520;50.954;6.968;2023-04-24T01:59:31;99608.91;;;18.06;39.17
18784;BME280;9520;50.954;6.968;2023-04-24T01:59:54;99604.38;;;17.80;39.00
18784;BME280;9520;50.954;6.968;2023-04-24T02:00:17;99599.69;;;17.84;39.24
18784;BME280;9520;50.954;6.968;2023-04-24T02:00:39;99607.03;;;17.94;39.28
18784;BME280;9520;50.954;6.968;2023-04-24T02:01:01;99591.41;;;17.88;39.30
18784;BME280;9520;50.954;6.968;2023-04-24T02:01:23;99606.53;;;18.02;39.28
18784;BME280;9520;50.954;6.968;2023-04-24T02:01:45;99602.16;;;18.01;39.40
18784;BME280;9520;50.954;6.968;2023-04-24T02:02:08;99596.25;;;17.96;39.61
18784;BME280;9520;50.954;6.968;2023-04-24T02:02:31;99601.69;;;17.94;39.26